Disclaimer

Please do not use the information listed here in-flight or in-navigation, as they are not provided to us by the airports but are provided by volunteers, so they might be outdated.

Search


Regions


Airport information page

Radio informations:
Tower (TWR) - 118.1 MHz
RDO - 119.7 MHz

Airport informations:
Latitude: 22° 48' 41.26" N
Longitude: 005° 27' 03.87" E
Elevation: 4518 feet - 1377 meters
Operating hours: N/A
Operating agency: Civil government, landing fees and diplomatic clearance may be required
Timezone: UTC+1
Fuel: Jet A1, without icing nhibitor.

100/130 octane gasoline, leaded, MIL-L-5572F (GREEN)

Runway information:
02/20 - 11811 x 148 feet< - >3600 x 45 meters
08/26 - 10171 x 148 feet< - >3100 x 45 meters

Recent METARs:
DAAT 130230Z 00000KT CAVOK 12/M12 Q1019
DAAT 130300Z 00000KT CAVOK 12/M11 Q1019
DAAT 130330Z 00000KT CAVOK 11/M12 Q1019

Airport on the map: